createdAt,value
2018-09-03T00:01:46.840Z,19.07
2018-09-03T00:04:16.249Z,19.04
2018-09-03T00:06:45.651Z,18.96
2018-09-03T00:09:15.053Z,18.71
2018-09-03T00:11:44.454Z,18.50
2018-09-03T00:14:13.747Z,18.19
2018-09-03T00:16:43.055Z,18.01
2018-09-03T00:19:12.399Z,18.08
2018-09-03T00:21:41.760Z,18.40
2018-09-03T00:24:11.106Z,18.57
2018-09-03T00:26:40.764Z,18.59
2018-09-03T00:29:10.865Z,18.33
2018-09-03T00:31:45.743Z,18.38
2018-09-03T00:34:20.386Z,18.45
2018-09-03T00:36:54.959Z,18.50
2018-09-03T00:39:29.528Z,17.98
2018-09-03T00:42:04.210Z,18.23
2018-09-03T00:44:38.961Z,18.42
2018-09-03T00:47:10.897Z,18.57
2018-09-03T00:49:40.716Z,18.47
2018-09-03T00:52:10.315Z,18.58
2018-09-03T00:54:40.406Z,18.63
2018-09-03T00:57:09.940Z,18.60
2018-09-03T00:59:39.307Z,18.69
2018-09-03T01:02:08.843Z,17.98
2018-09-03T01:04:38.247Z,18.86
2018-09-03T01:07:07.730Z,18.80
2018-09-03T01:09:37.050Z,18.86
2018-09-03T01:12:06.657Z,18.89
2018-09-03T01:14:35.957Z,18.96
2018-09-03T01:17:05.364Z,19.00
2018-09-03T01:19:34.561Z,19.04
2018-09-03T01:22:03.959Z,18.91
2018-09-03T01:24:33.257Z,18.80
2018-09-03T01:27:02.560Z,18.79
2018-09-03T01:29:32.023Z,18.81
2018-09-03T01:32:02.487Z,18.90
2018-09-03T01:34:31.860Z,19.02
2018-09-03T01:37:01.190Z,18.97
2018-09-03T01:39:30.590Z,18.95
2018-09-03T01:42:00.198Z,18.93
2018-09-03T01:44:29.599Z,18.89
2018-09-03T01:46:59.206Z,18.89
2018-09-03T01:49:28.812Z,18.95
2018-09-03T01:51:58.112Z,18.93
2018-09-03T01:54:27.514Z,18.98
2018-09-03T01:56:56.921Z,19.06
2018-09-03T01:59:26.140Z,19.15
2018-09-03T02:01:55.618Z,19.01
2018-09-03T02:04:25.021Z,18.83
2018-09-03T02:06:54.422Z,18.80
2018-09-03T02:09:23.619Z,18.73
2018-09-03T02:11:53.078Z,18.83
2018-09-03T02:14:22.422Z,18.77
2018-09-03T02:16:52.279Z,18.91
2018-09-03T02:19:21.534Z,18.86
2018-09-03T02:21:50.935Z,18.94
2018-09-03T02:24:20.544Z,18.88
2018-09-03T02:26:49.945Z,18.84
2018-09-03T02:29:19.345Z,18.86
2018-09-03T02:31:48.749Z,18.96
2018-09-03T02:34:18.155Z,18.88
2018-09-03T02:36:47.655Z,18.83
2018-09-03T02:39:16.859Z,18.90
2018-09-03T02:41:46.254Z,18.93
2018-09-03T02:44:15.608Z,18.91
2018-09-03T02:46:45.163Z,19.04
2018-09-03T02:49:14.665Z,18.95
2018-09-03T02:51:44.063Z,18.59
2018-09-03T02:54:13.577Z,18.41
2018-09-03T02:56:42.897Z,18.51
2018-09-03T02:59:12.495Z,18.56
2018-09-03T03:01:42.185Z,18.63
2018-09-03T03:04:11.586Z,18.69
2018-09-03T03:06:40.898Z,18.63
2018-09-03T03:09:10.141Z,18.61
2018-09-03T03:11:40.212Z,18.65
2018-09-03T03:14:09.605Z,18.65
2018-09-03T03:16:38.903Z,18.85
2018-09-03T03:19:08.308Z,18.90
2018-09-03T03:21:37.812Z,18.79
2018-09-03T03:24:07.027Z,18.86
2018-09-03T03:26:36.512Z,18.76
2018-09-03T03:29:05.913Z,18.62
2018-09-03T03:31:35.420Z,18.61
2018-09-03T03:34:05.043Z,18.67
2018-09-03T03:36:41.287Z,18.68
2018-09-03T03:39:10.893Z,18.69
2018-09-03T03:41:40.238Z,18.71
2018-09-03T03:44:09.594Z,18.83
2018-09-03T03:46:38.897Z,18.84
2018-09-03T03:49:09.423Z,18.82
2018-09-03T03:51:38.979Z,18.50
2018-09-03T03:54:08.493Z,18.29
2018-09-03T03:56:37.935Z,18.24
2018-09-03T03:59:07.341Z,18.37
2018-09-03T04:01:37.547Z,18.49
2018-09-03T04:04:07.631Z,18.26
2018-09-03T04:06:37.225Z,18.01
2018-09-03T04:09:09.320Z,18.19
2018-09-03T04:11:39.468Z,18.28
2018-09-03T04:14:08.870Z,18.24
2018-09-03T04:16:38.683Z,18.17
2018-09-03T04:19:07.925Z,18.30
2018-09-03T04:21:37.208Z,18.55
2018-09-03T04:24:06.670Z,18.63
2018-09-03T04:26:36.800Z,18.62
2018-09-03T04:29:06.305Z,18.65
2018-09-03T04:31:35.809Z,18.70
2018-09-03T04:34:05.519Z,18.86
2018-09-03T04:36:35.336Z,18.82
2018-09-03T04:39:07.230Z,18.79
2018-09-03T04:41:37.158Z,18.79
2018-09-03T04:44:06.553Z,18.84
2018-09-03T04:46:35.912Z,18.85
2018-09-03T04:49:05.217Z,18.71
2018-09-03T04:51:34.511Z,18.51
2018-09-03T04:54:03.812Z,18.37
2018-09-03T04:56:33.112Z,17.93
2018-09-03T04:59:02.565Z,18.21
2018-09-03T05:01:34.711Z,18.18
2018-09-03T05:04:03.931Z,17.94
2018-09-03T05:06:33.377Z,17.71
2018-09-03T05:09:02.778Z,17.88
2018-09-03T05:11:32.293Z,18.01
2018-09-03T05:14:01.786Z,18.30
2018-09-03T05:16:31.393Z,18.45
2018-09-03T05:19:00.845Z,18.63
2018-09-03T05:21:30.261Z,18.65
2018-09-03T05:23:59.459Z,18.76
2018-09-03T05:26:28.903Z,18.86
2018-09-03T05:28:58.507Z,18.96
2018-09-03T05:31:27.775Z,19.01
2018-09-03T05:33:57.104Z,18.97
2018-09-03T05:36:26.422Z,18.63
2018-09-03T05:38:55.869Z,18.68
2018-09-03T05:41:25.310Z,18.62
2018-09-03T05:43:54.772Z,18.71
2018-09-03T05:46:24.012Z,18.57
2018-09-03T05:48:53.515Z,18.79
2018-09-03T05:51:23.020Z,19.10
2018-09-03T05:53:52.421Z,19.10
2018-09-03T05:56:21.823Z,19.09
2018-09-03T05:58:51.226Z,19.16
2018-09-03T06:01:20.631Z,19.24
2018-09-03T06:03:50.234Z,19.23
2018-09-03T06:06:19.635Z,19.39
2018-09-03T06:08:48.935Z,19.25
2018-09-03T06:11:18.235Z,18.79
2018-09-03T06:13:47.637Z,18.45
2018-09-03T06:16:17.045Z,18.64
2018-09-03T06:18:46.440Z,18.76
2018-09-03T06:21:15.843Z,18.88
2018-09-03T06:23:45.244Z,19.11
2018-09-03T06:26:14.755Z,19.07
2018-09-03T06:28:44.255Z,19.14
2018-09-03T06:31:13.591Z,18.83
2018-09-03T06:33:42.959Z,19.08
2018-09-03T06:36:12.243Z,19.40
2018-09-03T06:38:41.582Z,19.49
2018-09-03T06:41:11.051Z,19.55
2018-09-03T06:43:40.354Z,19.66
2018-09-03T06:46:09.839Z,19.65
2018-09-03T06:48:39.264Z,19.79
2018-09-03T06:51:08.515Z,19.87
2018-09-03T06:53:38.272Z,19.92
2018-09-03T06:56:07.777Z,20.02
2018-09-03T06:58:39.946Z,20.12
2018-09-03T07:01:09.346Z,20.21
2018-09-03T07:03:38.748Z,20.20
2018-09-03T07:06:14.807Z,20.16
2018-09-03T07:08:44.311Z,20.17
2018-09-03T07:11:13.609Z,20.11
2018-09-03T07:13:43.013Z,20.18
2018-09-03T07:16:12.616Z,20.17
2018-09-03T07:18:42.162Z,20.18
2018-09-03T07:21:11.420Z,20.15
2018-09-03T07:23:40.828Z,20.21
2018-09-03T07:26:10.328Z,20.12
2018-09-03T07:28:39.630Z,20.17
2018-09-03T07:31:09.130Z,20.11
2018-09-03T07:33:39.558Z,20.10
2018-09-03T07:36:09.164Z,20.10
2018-09-03T07:38:38.566Z,20.09
2018-09-03T07:41:08.071Z,20.22
2018-09-03T07:43:37.365Z,20.13
2018-09-03T07:46:06.771Z,20.21
2018-09-03T07:48:36.275Z,20.21
2018-09-03T07:51:05.720Z,20.16
2018-09-03T07:53:35.156Z,20.09
2018-09-03T07:56:04.892Z,19.98
2018-09-03T07:58:34.372Z,19.76
2018-09-03T08:01:03.809Z,19.61
2018-09-03T08:03:33.465Z,18.98
2018-09-03T08:06:04.137Z,18.84
2018-09-03T08:08:40.351Z,19.19
2018-09-03T08:11:09.992Z,19.28
2018-09-03T08:13:41.502Z,19.30
2018-09-03T08:16:11.985Z,19.52
2018-09-03T08:18:41.996Z,19.64
2018-09-03T08:21:11.406Z,19.50
2018-09-03T08:23:40.657Z,19.34
2018-09-03T08:26:10.096Z,19.02
2018-09-03T08:28:39.507Z,19.11
2018-09-03T08:31:08.817Z,19.10
2018-09-03T08:33:38.175Z,19.11
2018-09-03T08:36:07.715Z,19.27
2018-09-03T08:38:37.322Z,19.23
2018-09-03T08:41:06.927Z,19.28
2018-09-03T08:43:36.532Z,19.13
2018-09-03T08:46:06.121Z,19.42
2018-09-03T08:48:35.465Z,18.95
2018-09-03T08:51:05.047Z,19.13
2018-09-03T08:53:34.431Z,19.63
2018-09-03T08:56:03.953Z,19.68
2018-09-03T08:58:33.406Z,20.08
2018-09-03T09:01:02.757Z,20.18
2018-09-03T09:03:37.381Z,20.42
2018-09-03T09:06:07.094Z,20.46
2018-09-03T09:08:36.351Z,20.29
2018-09-03T09:11:05.851Z,20.29
2018-09-03T09:13:35.093Z,20.37
2018-09-03T09:16:04.494Z,20.75
2018-09-03T09:18:33.788Z,20.88
2018-09-03T09:21:03.252Z,20.97
2018-09-03T09:23:32.715Z,20.96
2018-09-03T09:26:02.111Z,20.96
2018-09-03T09:28:31.607Z,20.87
2018-09-03T09:31:01.006Z,20.73
2018-09-03T09:33:30.411Z,20.72
2018-09-03T09:35:59.914Z,20.56
2018-09-03T09:38:29.150Z,20.59
2018-09-03T09:40:58.515Z,20.53
2018-09-03T09:43:27.815Z,20.44
2018-09-03T09:45:57.215Z,20.51
2018-09-03T09:48:26.513Z,20.52
2018-09-03T09:50:55.914Z,20.50
2018-09-03T09:53:25.521Z,20.51
2018-09-03T09:55:54.792Z,20.48
2018-09-03T09:58:24.736Z,20.49
2018-09-03T10:00:59.127Z,20.39
2018-09-03T10:03:28.407Z,20.06
2018-09-03T10:05:57.856Z,20.20
2018-09-03T10:08:27.257Z,20.03
2018-09-03T10:10:56.658Z,20.16
2018-09-03T10:13:26.559Z,20.20
2018-09-03T10:15:56.077Z,20.25
2018-09-03T10:18:25.326Z,20.23
2018-09-03T10:20:54.647Z,20.30
2018-09-03T10:23:23.976Z,20.40
2018-09-03T10:25:53.379Z,20.37
2018-09-03T10:28:22.882Z,20.51
2018-09-03T10:30:52.286Z,20.30
2018-09-03T10:33:21.697Z,20.29
2018-09-03T10:35:51.112Z,20.29
2018-09-03T10:38:20.593Z,20.32
2018-09-03T10:40:49.994Z,20.38
2018-09-03T10:43:19.512Z,20.44
2018-09-03T10:45:48.902Z,20.50
2018-09-03T10:48:18.406Z,20.57
2018-09-03T10:50:47.924Z,20.62
2018-09-03T10:53:17.313Z,20.37
2018-09-03T10:55:46.716Z,20.42
2018-09-03T10:58:16.115Z,20.43
2018-09-03T11:00:45.320Z,20.40
2018-09-03T11:03:14.610Z,20.42
2018-09-03T11:05:44.120Z,20.39
2018-09-03T11:08:13.519Z,20.30
2018-09-03T11:10:42.922Z,20.34
2018-09-03T11:13:13.069Z,20.43
2018-09-03T11:15:42.543Z,20.50
2018-09-03T11:18:11.846Z,20.37
2018-09-03T11:20:41.244Z,20.19
2018-09-03T11:23:10.487Z,20.40
2018-09-03T11:25:39.843Z,20.47
2018-09-03T11:28:09.159Z,20.46
2018-09-03T11:30:38.494Z,20.30
2018-09-03T11:33:07.948Z,20.40
2018-09-03T11:35:37.248Z,20.38
2018-09-03T11:38:06.550Z,20.41
2018-09-03T11:40:35.948Z,20.38
2018-09-03T11:43:05.191Z,20.49
2018-09-03T11:45:34.431Z,20.83
2018-09-03T11:48:03.851Z,20.78
2018-09-03T11:50:33.092Z,20.89
2018-09-03T11:53:02.290Z,20.82
2018-09-03T11:55:31.666Z,20.90
2018-09-03T11:58:01.147Z,20.99
2018-09-03T12:00:31.937Z,20.92
2018-09-03T12:03:01.283Z,20.92
2018-09-03T12:05:30.684Z,21.07
2018-09-03T12:08:00.087Z,21.12
2018-09-03T12:10:29.340Z,20.93
2018-09-03T12:12:58.890Z,21.08
2018-09-03T12:15:47.397Z,21.11
2018-09-03T12:18:16.740Z,21.10
2018-09-03T12:20:46.181Z,21.15
2018-09-03T12:23:15.371Z,21.12
2018-09-03T12:25:44.643Z,21.13
2018-09-03T12:28:14.040Z,21.09
2018-09-03T12:30:43.443Z,21.15
2018-09-03T12:33:12.845Z,21.09
2018-09-03T12:35:42.144Z,21.19
2018-09-03T12:38:11.649Z,21.22
2018-09-03T12:40:41.053Z,21.21
2018-09-03T12:43:10.452Z,21.12
2018-09-03T12:45:48.556Z,20.98
2018-09-03T12:48:18.575Z,20.80
2018-09-03T12:50:47.825Z,20.90
2018-09-03T12:53:17.173Z,20.81
2018-09-03T12:55:46.632Z,20.78
2018-09-03T12:58:16.080Z,20.89
2018-09-03T13:00:45.575Z,20.78
2018-09-03T13:03:15.116Z,20.77
2018-09-03T13:05:44.362Z,20.80
2018-09-03T13:08:13.790Z,20.77
2018-09-03T13:10:43.129Z,20.74
2018-09-03T13:13:12.388Z,20.93
2018-09-03T13:15:41.894Z,21.00
2018-09-03T13:18:11.296Z,21.21
2018-09-03T13:20:40.802Z,21.24
2018-09-03T13:23:10.011Z,21.32
2018-09-03T13:25:39.398Z,21.37
2018-09-03T13:28:09.003Z,21.32
2018-09-03T13:30:38.277Z,21.43
2018-09-03T13:33:07.700Z,21.32
2018-09-03T13:35:37.214Z,21.36
2018-09-03T13:38:06.616Z,21.32
2018-09-03T13:40:36.120Z,21.31
2018-09-03T13:43:05.723Z,21.34
2018-09-03T13:45:36.252Z,21.26
2018-09-03T13:48:05.696Z,21.43
2018-09-03T13:50:35.025Z,21.46
2018-09-03T13:53:04.214Z,21.49
2018-09-03T13:55:33.655Z,21.60
2018-09-03T13:58:02.954Z,21.62
2018-09-03T14:00:32.461Z,21.85
2018-09-03T14:03:01.861Z,21.84
2018-09-03T14:05:31.266Z,21.86
2018-09-03T14:08:00.567Z,21.94
2018-09-03T14:10:29.963Z,21.78
2018-09-03T14:12:59.368Z,21.77
2018-09-03T14:15:31.743Z,21.77
2018-09-03T14:18:01.365Z,21.84
2018-09-03T14:20:30.849Z,21.56
2018-09-03T14:23:00.251Z,21.53
2018-09-03T14:25:29.653Z,21.80
2018-09-03T14:27:59.362Z,21.83
2018-09-03T14:30:29.048Z,21.81
2018-09-03T14:32:58.968Z,21.82
2018-09-03T14:35:28.391Z,22.01
2018-09-03T14:37:58.427Z,21.96
2018-09-03T14:40:27.909Z,22.05
2018-09-03T14:42:57.353Z,21.80
2018-09-03T14:45:26.850Z,21.75
2018-09-03T14:47:56.216Z,21.94
2018-09-03T14:50:25.725Z,22.02
2018-09-03T14:52:55.960Z,21.80
2018-09-03T14:55:25.651Z,21.93
2018-09-03T14:57:55.162Z,22.00
2018-09-03T15:00:24.763Z,21.98
2018-09-03T15:02:54.675Z,21.99
2018-09-03T15:05:24.157Z,22.10
2018-09-03T15:07:53.653Z,22.14
2018-09-03T15:10:23.293Z,22.08
2018-09-03T15:12:52.898Z,22.08
2018-09-03T15:15:22.498Z,22.05
2018-09-03T15:17:52.215Z,22.16
2018-09-03T15:20:21.935Z,22.13
2018-09-03T15:22:52.168Z,22.10
2018-09-03T15:25:21.738Z,22.01
2018-09-03T15:27:51.460Z,22.02
2018-09-03T15:30:20.965Z,21.94
2018-09-03T15:32:50.484Z,21.86
2018-09-03T15:35:19.960Z,21.79
2018-09-03T15:37:49.585Z,21.76
2018-09-03T15:40:19.187Z,21.70
2018-09-03T15:42:48.822Z,21.72
2018-09-03T15:45:18.197Z,21.73
2018-09-03T15:47:47.938Z,21.87
2018-09-03T15:50:17.478Z,21.92
2018-09-03T15:52:46.887Z,22.10
2018-09-03T15:55:16.525Z,22.12
2018-09-03T15:57:45.880Z,22.15
2018-09-03T16:00:15.322Z,22.06
2018-09-03T16:02:44.811Z,22.16
2018-09-03T16:05:14.204Z,22.22
2018-09-03T16:07:43.840Z,22.30
2018-09-03T16:10:13.449Z,22.33
2018-09-03T16:12:43.463Z,22.31
2018-09-03T16:15:13.170Z,22.27
2018-09-03T16:17:43.501Z,22.27
2018-09-03T16:20:13.211Z,22.13
2018-09-03T16:22:43.016Z,22.05
2018-09-03T16:25:12.519Z,22.05
2018-09-03T16:27:42.178Z,22.09
2018-09-03T16:30:11.640Z,22.17
2018-09-03T16:32:41.557Z,22.31
2018-09-03T16:35:11.553Z,22.24
2018-09-03T16:37:41.380Z,22.38
2018-09-03T16:40:11.490Z,22.34
2018-09-03T16:42:40.922Z,22.18
2018-09-03T16:45:10.252Z,22.33
2018-09-03T16:47:39.696Z,22.39
2018-09-03T16:50:09.306Z,22.41
2018-09-03T16:52:38.910Z,22.21
2018-09-03T16:55:08.536Z,22.28
2018-09-03T16:57:38.124Z,22.21
2018-09-03T17:00:07.647Z,22.18
2018-09-03T17:02:37.338Z,22.12
2018-09-03T17:05:07.147Z,22.07
2018-09-03T17:07:36.770Z,22.08
2018-09-03T17:10:06.007Z,22.07
2018-09-03T17:12:36.166Z,22.05
2018-09-03T17:15:07.374Z,22.10
2018-09-03T17:17:36.820Z,22.08
2018-09-03T17:20:06.637Z,22.10
2018-09-03T17:22:36.017Z,22.08
2018-09-03T17:25:05.410Z,22.02
2018-09-03T17:27:35.248Z,21.93
2018-09-03T17:30:04.712Z,21.88
2018-09-03T17:32:34.360Z,21.84
2018-09-03T17:35:04.068Z,21.84
2018-09-03T17:37:33.538Z,21.78
2018-09-03T17:40:02.974Z,21.78
2018-09-03T17:42:32.478Z,21.70
2018-09-03T17:45:01.784Z,21.56
2018-09-03T17:47:31.183Z,21.49
2018-09-03T17:50:00.408Z,21.42
2018-09-03T17:52:29.937Z,21.42
2018-09-03T17:54:59.556Z,21.40
2018-09-03T17:57:29.097Z,21.44
2018-09-03T17:59:58.497Z,21.32
2018-09-03T18:02:28.002Z,21.27
2018-09-03T18:04:57.403Z,21.18
2018-09-03T18:07:27.934Z,21.16
2018-09-03T18:09:57.333Z,21.11
2018-09-03T18:12:26.838Z,21.05
2018-09-03T18:14:56.242Z,20.98
2018-09-03T18:17:25.642Z,20.95
2018-09-03T18:20:00.185Z,19.11
2018-09-03T18:22:49.945Z,20.73
2018-09-03T18:25:20.448Z,20.72
2018-09-03T18:27:50.083Z,20.72
2018-09-03T18:30:19.868Z,20.63
2018-09-03T18:32:49.601Z,20.58
2018-09-03T18:35:19.207Z,20.54
2018-09-03T18:37:49.736Z,20.50
2018-09-03T18:40:19.194Z,20.36
2018-09-03T18:42:52.375Z,20.20
2018-09-03T18:45:22.203Z,20.15
2018-09-03T18:47:51.678Z,20.18
2018-09-03T18:50:21.217Z,20.19
2018-09-03T18:52:50.962Z,20.17
2018-09-03T18:55:20.464Z,20.12
2018-09-03T18:57:49.974Z,20.13
2018-09-03T19:00:19.598Z,20.13
2018-09-03T19:02:49.387Z,20.09
2018-09-03T19:05:18.772Z,20.10
2018-09-03T19:07:52.193Z,20.11
2018-09-03T19:10:40.674Z,20.11
2018-09-03T19:13:10.546Z,20.09
2018-09-03T19:15:40.298Z,20.05
2018-09-03T19:18:09.865Z,20.06
2018-09-03T19:20:39.570Z,20.04
2018-09-03T19:23:09.179Z,19.96
2018-09-03T19:25:38.619Z,19.97
2018-09-03T19:28:08.219Z,19.95
2018-09-03T19:30:37.899Z,19.88
2018-09-03T19:33:07.605Z,19.87
2018-09-03T19:35:37.315Z,19.86
2018-09-03T19:38:07.233Z,19.93
2018-09-03T19:40:36.936Z,19.91
2018-09-03T19:43:06.806Z,19.91
2018-09-03T19:45:36.513Z,19.90
2018-09-03T19:48:06.685Z,19.92
2018-09-03T19:50:36.596Z,19.89
2018-09-03T19:53:07.733Z,19.87
2018-09-03T19:55:37.343Z,19.87
2018-09-03T19:58:06.845Z,19.89
2018-09-03T20:00:36.343Z,19.86
2018-09-03T20:03:05.834Z,19.82
2018-09-03T20:05:35.463Z,19.83
2018-09-03T20:08:04.965Z,19.86
2018-09-03T20:10:34.471Z,19.79
2018-09-03T20:13:03.977Z,19.74
2018-09-03T20:15:33.640Z,19.81
2018-09-03T20:18:03.182Z,19.83
2018-09-03T20:20:32.692Z,19.79
2018-09-03T20:23:02.096Z,19.75
2018-09-03T20:25:31.602Z,19.66
2018-09-03T20:28:00.950Z,19.64
2018-09-03T20:30:30.303Z,19.63
2018-09-03T20:32:59.701Z,19.69
2018-09-03T20:35:29.105Z,19.70
2018-09-03T20:37:58.507Z,19.61
2018-09-03T20:40:28.081Z,19.56
2018-09-03T20:42:57.450Z,19.56
2018-09-03T20:45:27.127Z,19.28
2018-09-03T20:47:56.725Z,19.54
2018-09-03T20:50:26.139Z,19.50
2018-09-03T20:52:55.638Z,19.42
2018-09-03T20:55:25.136Z,19.24
2018-09-03T20:57:54.617Z,19.25
2018-09-03T21:00:24.246Z,19.04
2018-09-03T21:02:53.699Z,19.15
2018-09-03T21:05:23.288Z,19.03
2018-09-03T21:07:52.763Z,18.93
2018-09-03T21:10:22.163Z,18.83
2018-09-03T21:12:51.543Z,18.93
2018-09-03T21:15:20.967Z,18.84
2018-09-03T21:17:50.572Z,19.05
2018-09-03T21:20:20.286Z,19.27
2018-09-03T21:22:49.676Z,19.23
2018-09-03T21:25:19.394Z,19.13
2018-09-03T21:27:48.780Z,18.96
2018-09-03T21:30:18.206Z,19.02
2018-09-03T21:32:47.805Z,19.18
2018-09-03T21:35:17.411Z,19.10
2018-09-03T21:37:46.915Z,19.15
2018-09-03T21:40:16.278Z,19.22
2018-09-03T21:42:45.824Z,19.26
2018-09-03T21:45:16.452Z,19.28
2018-09-03T21:47:46.782Z,19.21
2018-09-03T21:50:16.487Z,19.18
2018-09-03T21:52:45.991Z,19.15
2018-09-03T21:55:15.699Z,19.09
2018-09-03T21:57:45.091Z,19.10
2018-09-03T22:00:18.431Z,19.15
2018-09-03T22:02:50.711Z,19.18
2018-09-03T22:05:20.570Z,19.24
2018-09-03T22:07:51.920Z,19.22
2018-09-03T22:10:21.429Z,19.18
2018-09-03T22:12:51.207Z,19.20
2018-09-03T22:15:20.482Z,19.20
2018-09-03T22:17:50.044Z,19.07
2018-09-03T22:20:19.752Z,19.08
2018-09-03T22:22:49.256Z,19.03
2018-09-03T22:25:18.872Z,18.93
2018-09-03T22:27:48.389Z,18.89
2018-09-03T22:30:18.079Z,18.84
2018-09-03T22:32:47.294Z,18.87
2018-09-03T22:35:16.782Z,18.89
2018-09-03T22:37:46.284Z,18.81
2018-09-03T22:40:15.788Z,18.80
2018-09-03T22:42:47.738Z,18.82
2018-09-03T22:45:17.459Z,18.84
2018-09-03T22:47:46.863Z,18.89
2018-09-03T22:50:16.160Z,18.89
2018-09-03T22:52:45.615Z,18.90
2018-09-03T22:55:15.068Z,18.86
2018-09-03T22:57:44.368Z,18.84
2018-09-03T23:00:13.672Z,18.92
2018-09-03T23:02:43.772Z,18.76
2018-09-03T23:05:13.187Z,18.77
2018-09-03T23:07:42.590Z,18.71
2018-09-03T23:10:12.194Z,18.68
2018-09-03T23:12:41.596Z,18.72
2018-09-03T23:15:13.971Z,18.71
2018-09-03T23:17:44.395Z,18.68
2018-09-03T23:20:13.899Z,18.67
2018-09-03T23:22:43.235Z,18.64
2018-09-03T23:25:12.601Z,18.69
2018-09-03T23:27:42.006Z,18.77
2018-09-03T23:30:11.410Z,18.55
2018-09-03T23:32:40.912Z,18.42
2018-09-03T23:35:10.822Z,18.35
2018-09-03T23:37:40.224Z,18.51
2018-09-03T23:40:09.626Z,18.62
2018-09-03T23:42:39.114Z,18.59
2018-09-03T23:45:08.839Z,18.64
2018-09-03T23:47:38.104Z,18.66
2018-09-03T23:50:07.541Z,18.66
2018-09-03T23:52:36.942Z,18.62
2018-09-03T23:55:06.798Z,18.81
2018-09-03T23:57:36.235Z,18.75
